createdAt,value
2019-02-11T00:01:15.882Z,0.47
2019-02-11T00:03:44.901Z,0.60
2019-02-11T00:06:13.829Z,0.57
2019-02-11T00:08:42.504Z,0.60
2019-02-11T00:11:11.169Z,0.57
2019-02-11T00:13:49.378Z,0.70
2019-02-11T00:16:18.306Z,0.60
2019-02-11T00:18:47.217Z,0.60
2019-02-11T00:21:15.877Z,0.50
2019-02-11T00:23:45.620Z,0.70
2019-02-11T00:26:14.680Z,0.67
2019-02-11T00:28:43.349Z,0.57
2019-02-11T00:31:12.350Z,0.97
2019-02-11T00:33:41.070Z,1.03
2019-02-11T00:36:10.324Z,1.00
2019-02-11T00:38:38.971Z,1.10
2019-02-11T00:41:07.639Z,0.90
2019-02-11T00:43:36.754Z,0.97
2019-02-11T00:46:05.420Z,0.90
2019-02-11T00:48:34.092Z,0.87
2019-02-11T00:51:02.767Z,1.03
2019-02-11T00:53:31.737Z,0.70
2019-02-11T00:56:00.413Z,1.00
2019-02-11T00:58:29.425Z,0.80
2019-02-11T01:00:58.334Z,0.97
2019-02-11T01:03:27.301Z,0.87
2019-02-11T01:05:56.356Z,0.70
2019-02-11T01:08:25.003Z,0.90
2019-02-11T01:10:53.698Z,1.03
2019-02-11T01:13:27.841Z,0.70
2019-02-11T01:15:53.051Z,0.73
2019-02-11T01:18:21.722Z,0.97
2019-02-11T01:20:50.667Z,0.67
2019-02-11T01:23:19.631Z,0.87
2019-02-11T01:25:48.346Z,0.90
2019-02-11T01:28:17.004Z,1.00
2019-02-11T01:30:45.945Z,0.60
2019-02-11T01:33:14.598Z,0.57
2019-02-11T01:35:43.243Z,0.60
2019-02-11T01:38:12.255Z,0.63
2019-02-11T01:40:40.963Z,0.50
2019-02-11T01:43:09.864Z,0.47
2019-02-11T01:45:38.555Z,0.50
2019-02-11T01:48:07.228Z,0.40
2019-02-11T01:50:35.959Z,0.40
2019-02-11T01:53:05.123Z,0.40
2019-02-11T01:55:33.800Z,0.40
2019-02-11T01:58:02.467Z,0.50
2019-02-11T02:00:31.146Z,0.33
2019-02-11T02:03:00.067Z,0.30
2019-02-11T02:05:29.307Z,0.30
2019-02-11T02:07:58.482Z,0.30
2019-02-11T02:10:27.477Z,0.30
2019-02-11T02:12:56.699Z,0.30
2019-02-11T02:15:25.712Z,0.43
2019-02-11T02:17:54.438Z,0.40
2019-02-11T02:20:23.083Z,0.50
2019-02-11T02:22:51.986Z,0.57
2019-02-11T02:25:20.637Z,0.37
2019-02-11T02:27:49.291Z,0.50
2019-02-11T02:30:18.241Z,0.60
2019-02-11T02:32:47.144Z,0.80
2019-02-11T02:35:16.085Z,0.80
2019-02-11T02:37:44.727Z,0.83
2019-02-11T02:40:13.386Z,0.63
2019-02-11T02:42:42.039Z,0.80
2019-02-11T02:45:11.161Z,0.50
2019-02-11T02:47:39.808Z,0.43
2019-02-11T02:50:08.948Z,0.50
2019-02-11T02:52:37.881Z,0.60
2019-02-11T02:55:07.147Z,0.50
2019-02-11T02:57:35.881Z,0.40
2019-02-11T03:00:05.884Z,0.40
2019-02-11T03:02:34.541Z,0.40
2019-02-11T03:05:03.191Z,0.60
2019-02-11T03:07:31.878Z,0.40
2019-02-11T03:10:00.535Z,0.30
2019-02-11T03:12:29.217Z,0.30
2019-02-11T03:14:58.015Z,0.40
2019-02-11T03:17:26.663Z,0.30
2019-02-11T03:19:55.346Z,0.30
2019-02-11T03:22:24.025Z,0.47
2019-02-11T03:24:52.986Z,0.40
2019-02-11T03:27:22.285Z,0.50
2019-02-11T03:29:50.951Z,0.40
2019-02-11T03:32:19.636Z,0.40
2019-02-11T03:34:48.575Z,0.60
2019-02-11T03:37:17.254Z,0.50
2019-02-11T03:39:46.102Z,0.40
2019-02-11T03:42:14.762Z,0.50
2019-02-11T03:44:43.413Z,0.50
2019-02-11T03:47:12.056Z,0.47
2019-02-11T03:49:40.991Z,0.60
2019-02-11T03:52:10.079Z,0.63
2019-02-11T03:54:39.406Z,0.60
2019-02-11T03:57:08.290Z,0.70
2019-02-11T03:59:36.942Z,1.40
2019-02-11T04:02:05.965Z,1.50
2019-02-11T04:04:34.607Z,1.70
2019-02-11T04:07:03.440Z,2.27
2019-02-11T04:09:32.433Z,1.80
2019-02-11T04:12:01.112Z,2.70
2019-02-11T04:14:29.806Z,1.93
2019-02-11T04:16:58.783Z,2.27
2019-02-11T04:19:27.516Z,2.03
2019-02-11T04:22:06.582Z,1.63
2019-02-11T04:24:35.619Z,3.43
2019-02-11T04:27:04.730Z,1.80
2019-02-11T04:29:33.418Z,1.77
2019-02-11T04:32:02.335Z,2.37
2019-02-11T04:34:31.073Z,2.50
2019-02-11T04:36:59.768Z,1.77
2019-02-11T04:39:28.430Z,2.30
2019-02-11T04:41:57.585Z,2.30
2019-02-11T04:44:33.847Z,2.23
2019-02-11T04:46:56.637Z,2.10
2019-02-11T04:49:25.346Z,2.10
2019-02-11T04:51:54.022Z,2.43
2019-02-11T04:54:22.751Z,1.80
2019-02-11T04:56:51.690Z,2.10
2019-02-11T04:59:20.360Z,2.57
2019-02-11T05:01:49.031Z,3.07
2019-02-11T05:04:17.992Z,2.90
2019-02-11T05:06:46.708Z,2.87
2019-02-11T05:09:15.444Z,2.00
2019-02-11T05:11:44.194Z,2.00
2019-02-11T05:14:12.918Z,2.17
2019-02-11T05:16:41.659Z,2.23
2019-02-11T05:19:10.818Z,2.17
2019-02-11T05:21:39.487Z,1.57
2019-02-11T05:24:08.151Z,2.33
2019-02-11T05:26:37.174Z,1.70
2019-02-11T05:29:05.955Z,1.80
2019-02-11T05:31:34.641Z,1.83
2019-02-11T05:34:06.494Z,1.27
2019-02-11T05:36:35.215Z,1.73
2019-02-11T05:39:05.704Z,1.33
2019-02-11T05:41:34.379Z,1.17
2019-02-11T05:44:05.708Z,1.00
2019-02-11T05:46:33.482Z,1.40
2019-02-11T05:49:02.156Z,1.67
2019-02-11T05:51:31.266Z,1.20
2019-02-11T05:54:00.116Z,1.17
2019-02-11T05:56:28.855Z,0.97
2019-02-11T05:58:57.503Z,1.33
2019-02-11T06:01:26.354Z,1.07
2019-02-11T06:03:55.023Z,1.33
2019-02-11T06:06:24.219Z,1.00
2019-02-11T06:08:53.169Z,1.10
2019-02-11T06:11:22.042Z,1.50
2019-02-11T06:13:50.729Z,1.10
2019-02-11T06:16:20.260Z,0.90
2019-02-11T06:18:49.002Z,1.17
2019-02-11T06:21:17.646Z,1.53
2019-02-11T06:23:46.399Z,1.40
2019-02-11T06:26:15.049Z,1.03
2019-02-11T06:28:43.745Z,1.03
2019-02-11T06:31:12.410Z,1.40
2019-02-11T06:33:41.088Z,1.00
2019-02-11T06:36:12.351Z,1.20
2019-02-11T06:38:40.473Z,1.43
2019-02-11T06:41:09.449Z,1.40
2019-02-11T06:43:38.111Z,1.43
2019-02-11T06:46:07.027Z,1.47
2019-02-11T06:48:36.029Z,1.70
2019-02-11T06:51:05.115Z,1.13
2019-02-11T06:53:33.934Z,1.47
2019-02-11T06:56:02.761Z,1.20
2019-02-11T06:58:31.465Z,1.63
2019-02-11T07:01:00.419Z,1.57
2019-02-11T07:03:29.372Z,1.73
2019-02-11T07:05:58.028Z,1.10
2019-02-11T07:08:26.735Z,2.00
2019-02-11T07:10:55.999Z,1.23
2019-02-11T07:13:25.041Z,1.70
2019-02-11T07:15:53.692Z,1.40
2019-02-11T07:18:22.928Z,1.33
2019-02-11T07:20:51.674Z,1.50
2019-02-11T07:23:20.595Z,1.20
2019-02-11T07:25:49.323Z,1.37
2019-02-11T07:28:18.007Z,1.87
2019-02-11T07:30:46.743Z,1.00
2019-02-11T07:33:15.420Z,1.20
2019-02-11T07:35:44.095Z,1.20
2019-02-11T07:38:12.791Z,1.10
2019-02-11T07:40:41.827Z,1.33
2019-02-11T07:43:19.549Z,1.53
2019-02-11T07:46:05.459Z,1.27
2019-02-11T07:48:34.346Z,1.27
2019-02-11T07:51:02.986Z,1.30
2019-02-11T07:53:32.284Z,1.50
2019-02-11T07:56:01.963Z,1.20
2019-02-11T07:58:30.877Z,0.67
2019-02-11T08:00:59.796Z,1.10
2019-02-11T08:03:28.777Z,1.23
2019-02-11T08:05:57.543Z,1.33
2019-02-11T08:08:26.308Z,1.63
2019-02-11T08:10:55.438Z,2.17
2019-02-11T08:13:24.178Z,1.33
2019-02-11T08:15:52.890Z,1.57
2019-02-11T08:18:21.811Z,1.00
2019-02-11T08:20:51.007Z,0.83
2019-02-11T08:23:19.680Z,1.50
2019-02-11T08:25:48.687Z,1.27
2019-02-11T08:28:19.606Z,1.03
2019-02-11T08:30:48.030Z,0.80
2019-02-11T08:33:16.806Z,0.60
2019-02-11T08:35:45.924Z,0.90
2019-02-11T08:38:14.565Z,0.80
2019-02-11T08:40:43.572Z,1.13
2019-02-11T08:43:12.296Z,1.33
2019-02-11T08:45:46.846Z,1.77
2019-02-11T08:48:11.303Z,1.20
2019-02-11T08:50:39.983Z,1.63
2019-02-11T08:53:09.620Z,2.03
2019-02-11T08:55:38.328Z,1.40
2019-02-11T08:58:06.985Z,2.07
2019-02-11T09:00:36.213Z,1.47
2019-02-11T09:03:04.926Z,1.23
2019-02-11T09:05:33.567Z,1.20
2019-02-11T09:08:02.265Z,1.40
2019-02-11T09:10:31.175Z,1.40
2019-02-11T09:12:59.870Z,1.50
2019-02-11T09:15:28.595Z,1.20
2019-02-11T09:17:57.240Z,1.33
2019-02-11T09:20:25.912Z,1.63
2019-02-11T09:22:54.547Z,1.50
2019-02-11T09:25:23.204Z,1.97
2019-02-11T09:27:51.873Z,1.10
2019-02-11T09:30:20.508Z,1.47
2019-02-11T09:32:49.476Z,1.83
2019-02-11T09:35:18.157Z,1.80
2019-02-11T09:37:47.049Z,1.23
2019-02-11T09:40:16.162Z,1.40
2019-02-11T09:42:44.794Z,1.10
2019-02-11T09:45:16.763Z,1.03
2019-02-11T09:47:45.459Z,1.27
2019-02-11T09:50:20.528Z,1.60
2019-02-11T09:52:50.746Z,2.03
2019-02-11T09:55:22.513Z,1.67
2019-02-11T09:57:51.238Z,1.07
2019-02-11T10:00:20.279Z,1.50
2019-02-11T10:02:49.389Z,1.53
2019-02-11T10:05:18.154Z,1.53
2019-02-11T10:07:47.168Z,1.87
2019-02-11T10:10:16.165Z,1.60
2019-02-11T10:12:45.259Z,1.60
2019-02-11T10:15:15.173Z,1.50
2019-02-11T10:17:43.834Z,1.53
2019-02-11T10:20:12.541Z,1.90
2019-02-11T10:22:41.195Z,1.30
2019-02-11T10:25:12.875Z,1.53
2019-02-11T10:27:41.830Z,1.40
2019-02-11T10:30:12.612Z,1.73
2019-02-11T10:32:41.279Z,1.50
2019-02-11T10:35:10.892Z,2.40
2019-02-11T10:37:39.564Z,2.23
2019-02-11T10:40:10.096Z,1.73
2019-02-11T10:42:38.739Z,1.53
2019-02-11T10:45:09.379Z,1.43
2019-02-11T10:47:38.914Z,1.57
2019-02-11T10:50:08.419Z,1.60
2019-02-11T10:52:37.448Z,1.30
2019-02-11T10:55:08.049Z,1.13
2019-02-11T10:57:36.728Z,1.60
2019-02-11T11:00:07.267Z,1.67
2019-02-11T11:02:36.197Z,1.17
2019-02-11T11:05:06.070Z,1.37
2019-02-11T11:07:34.715Z,2.53
2019-02-11T11:10:03.571Z,1.87
2019-02-11T11:12:32.886Z,1.60
2019-02-11T11:15:01.895Z,1.30
2019-02-11T11:17:30.883Z,1.37
2019-02-11T11:19:59.504Z,1.20
2019-02-11T11:22:28.150Z,1.70
2019-02-11T11:24:57.025Z,2.10
2019-02-11T11:27:26.024Z,1.97
2019-02-11T11:29:55.693Z,1.60
2019-02-11T11:32:24.423Z,1.70
2019-02-11T11:34:53.445Z,2.10
2019-02-11T11:37:22.419Z,1.73
2019-02-11T11:39:51.129Z,1.20
2019-02-11T11:42:21.634Z,2.27
2019-02-11T11:44:50.300Z,1.63
2019-02-11T11:47:19.179Z,1.60
2019-02-11T11:49:47.978Z,2.40
2019-02-11T11:52:16.719Z,1.80
2019-02-11T11:54:45.383Z,1.57
2019-02-11T11:57:14.049Z,2.33
2019-02-11T11:59:43.175Z,1.60
2019-02-11T12:02:15.563Z,1.17
2019-02-11T12:04:42.253Z,1.10
2019-02-11T12:07:11.172Z,1.83
2019-02-11T12:09:43.687Z,1.90
2019-02-11T12:12:13.276Z,2.07
2019-02-11T12:14:41.264Z,1.60
2019-02-11T12:17:09.928Z,1.20
2019-02-11T12:19:39.139Z,1.30
2019-02-11T12:22:12.621Z,1.57
2019-02-11T12:24:38.588Z,1.33
2019-02-11T12:27:18.380Z,1.10
2019-02-11T12:29:47.323Z,1.60
2019-02-11T12:32:16.021Z,1.23
2019-02-11T12:34:44.702Z,1.33
2019-02-11T12:37:13.406Z,1.27
2019-02-11T12:39:42.340Z,2.13
2019-02-11T12:42:11.017Z,1.13
2019-02-11T12:44:39.733Z,2.10
2019-02-11T12:47:14.244Z,1.63
2019-02-11T12:49:38.808Z,0.97
2019-02-11T12:52:07.839Z,1.40
2019-02-11T12:54:36.937Z,0.90
2019-02-11T12:57:05.632Z,1.00
2019-02-11T12:59:34.298Z,1.37
2019-02-11T13:02:02.985Z,1.10
2019-02-11T13:04:31.732Z,1.03
2019-02-11T13:07:00.376Z,1.07
2019-02-11T13:09:29.132Z,1.27
2019-02-11T13:11:57.936Z,1.03
2019-02-11T13:14:26.620Z,1.30
2019-02-11T13:16:55.989Z,1.30
2019-02-11T13:19:24.661Z,1.37
2019-02-11T13:21:53.318Z,1.23
2019-02-11T13:24:22.211Z,1.23
2019-02-11T13:26:50.861Z,1.23
2019-02-11T13:29:19.818Z,1.30
2019-02-11T13:31:48.499Z,1.30
2019-02-11T13:34:17.167Z,1.53
2019-02-11T13:36:47.206Z,1.20
2019-02-11T13:39:15.993Z,1.17
2019-02-11T13:41:44.989Z,1.17
2019-02-11T13:44:13.621Z,1.20
2019-02-11T13:46:42.312Z,1.20
2019-02-11T13:49:12.062Z,1.30
2019-02-11T13:51:41.046Z,1.10
2019-02-11T13:54:09.799Z,1.23
2019-02-11T13:56:38.597Z,1.17
2019-02-11T13:59:07.841Z,1.10
2019-02-11T14:01:36.797Z,1.63
2019-02-11T14:04:05.567Z,1.00
2019-02-11T14:06:34.684Z,1.43
2019-02-11T14:09:05.390Z,0.80
2019-02-11T14:11:34.045Z,1.63
2019-02-11T14:14:03.929Z,0.87
2019-02-11T14:16:32.986Z,0.87
2019-02-11T14:19:01.809Z,0.90
2019-02-11T14:21:30.531Z,0.80
2019-02-11T14:23:59.237Z,0.80
2019-02-11T14:26:28.039Z,0.90
2019-02-11T14:28:56.827Z,0.87
2019-02-11T14:31:25.485Z,0.83
2019-02-11T14:33:54.146Z,0.87
2019-02-11T14:36:23.459Z,1.00
2019-02-11T14:38:52.230Z,0.90
2019-02-11T14:41:21.083Z,0.50
2019-02-11T14:43:50.535Z,0.50
2019-02-11T14:46:19.192Z,0.40
2019-02-11T14:48:47.893Z,0.90
2019-02-11T14:51:16.663Z,0.90
2019-02-11T14:53:46.755Z,0.50
2019-02-11T14:56:15.501Z,0.50
2019-02-11T14:59:00.464Z,0.40
2019-02-11T15:01:29.599Z,0.50
2019-02-11T15:03:58.520Z,0.60
2019-02-11T15:06:27.171Z,0.50
2019-02-11T15:08:55.839Z,0.30
2019-02-11T15:11:24.861Z,0.37
2019-02-11T15:13:54.064Z,0.53
2019-02-11T15:16:23.147Z,0.43
2019-02-11T15:18:51.861Z,0.50
2019-02-11T15:21:20.767Z,0.50
2019-02-11T15:23:50.488Z,0.80
2019-02-11T15:26:19.208Z,0.87
2019-02-11T15:28:48.234Z,0.40
2019-02-11T15:31:16.880Z,0.50
2019-02-11T15:33:45.575Z,0.50
2019-02-11T15:36:14.604Z,0.37
2019-02-11T15:38:44.430Z,0.40
2019-02-11T15:41:13.087Z,0.40
2019-02-11T15:43:41.807Z,0.50
2019-02-11T15:46:10.874Z,0.40
2019-02-11T15:48:43.078Z,0.60
2019-02-11T15:51:10.816Z,0.50
2019-02-11T15:53:39.802Z,0.47
2019-02-11T15:56:08.763Z,0.40
2019-02-11T15:58:37.451Z,0.40
2019-02-11T16:01:06.216Z,0.50
2019-02-11T16:03:34.879Z,0.33
2019-02-11T16:06:10.301Z,0.63
2019-02-11T16:08:33.955Z,0.30
2019-02-11T16:11:02.987Z,0.50
2019-02-11T16:13:32.031Z,0.40
2019-02-11T16:16:00.678Z,0.50
2019-02-11T16:18:29.687Z,0.40
2019-02-11T16:20:58.417Z,0.50
2019-02-11T16:23:27.338Z,0.60
2019-02-11T16:25:56.019Z,0.60
2019-02-11T16:28:24.706Z,0.40
2019-02-11T16:30:53.412Z,0.63
2019-02-11T16:33:22.731Z,0.50
2019-02-11T16:35:51.444Z,0.33
2019-02-11T16:38:20.106Z,0.40
2019-02-11T16:40:48.748Z,0.60
2019-02-11T16:43:17.521Z,0.40
2019-02-11T16:45:46.193Z,0.60
2019-02-11T16:48:14.875Z,0.47
2019-02-11T16:50:43.905Z,0.70
2019-02-11T16:53:12.656Z,0.87
2019-02-11T16:55:41.324Z,1.00
2019-02-11T16:58:10.288Z,0.57
2019-02-11T17:00:38.960Z,0.80
2019-02-11T17:03:07.624Z,0.50
2019-02-11T17:05:36.397Z,0.80
2019-02-11T17:08:05.206Z,0.60
2019-02-11T17:10:33.850Z,0.60
2019-02-11T17:13:02.504Z,0.57
2019-02-11T17:15:31.143Z,0.50
2019-02-11T17:18:00.074Z,0.60
2019-02-11T17:20:28.719Z,0.83
2019-02-11T17:22:57.424Z,0.60
2019-02-11T17:25:26.431Z,0.53
2019-02-11T17:27:55.415Z,0.50
2019-02-11T17:30:25.508Z,0.60
2019-02-11T17:32:54.279Z,0.67
2019-02-11T17:35:23.010Z,0.63
2019-02-11T17:37:52.905Z,0.90
2019-02-11T17:40:22.010Z,0.90
2019-02-11T17:42:51.651Z,0.60
2019-02-11T17:45:22.562Z,0.93
2019-02-11T17:47:51.584Z,0.63
2019-02-11T17:50:20.865Z,0.50
2019-02-11T17:52:50.419Z,1.00
2019-02-11T17:55:19.711Z,0.50
2019-02-11T17:57:48.451Z,0.67
2019-02-11T18:00:25.160Z,0.70
2019-02-11T18:02:54.047Z,0.70
2019-02-11T18:05:22.828Z,0.87
2019-02-11T18:07:51.525Z,0.80
2019-02-11T18:10:20.307Z,0.90
2019-02-11T18:12:49.057Z,0.77
2019-02-11T18:15:18.408Z,0.60
2019-02-11T18:17:47.849Z,0.70
2019-02-11T18:20:16.907Z,0.43
2019-02-11T18:22:46.399Z,0.47
2019-02-11T18:25:15.304Z,0.50
2019-02-11T18:27:44.068Z,0.70
2019-02-11T18:30:14.655Z,0.50
2019-02-11T18:32:43.466Z,0.80
2019-02-11T18:35:12.352Z,0.67
2019-02-11T18:37:41.114Z,0.50
2019-02-11T18:40:12.154Z,0.60
2019-02-11T18:42:41.146Z,0.80
2019-02-11T18:45:13.562Z,0.73
2019-02-11T18:47:42.447Z,0.57
2019-02-11T18:50:12.188Z,0.63
2019-02-11T18:52:41.080Z,0.53
2019-02-11T18:55:11.303Z,0.70
2019-02-11T18:57:40.834Z,0.47
2019-02-11T19:00:15.196Z,0.70
2019-02-11T19:02:47.424Z,0.60
2019-02-11T19:05:19.743Z,0.60
2019-02-11T19:07:49.150Z,0.60
2019-02-11T19:10:18.083Z,0.73
2019-02-11T19:12:47.112Z,0.57
2019-02-11T19:15:16.021Z,0.60
2019-02-11T19:17:45.065Z,0.50
2019-02-11T19:20:14.861Z,0.63
2019-02-11T19:22:44.661Z,1.03
2019-02-11T19:25:13.571Z,0.77
2019-02-11T19:27:42.563Z,0.73
2019-02-11T19:30:20.943Z,0.87
2019-02-11T19:32:51.592Z,0.80
2019-02-11T19:35:20.729Z,0.70
2019-02-11T19:37:49.412Z,0.57
2019-02-11T19:40:18.224Z,1.10
2019-02-11T19:42:47.605Z,0.87
2019-02-11T19:45:18.911Z,0.60
2019-02-11T19:47:47.661Z,0.80
2019-02-11T19:50:17.524Z,0.83
2019-02-11T19:52:46.458Z,0.50
2019-02-11T19:55:15.675Z,0.97
2019-02-11T19:57:44.555Z,0.70
2019-02-11T20:00:19.121Z,0.70
2019-02-11T20:02:49.169Z,0.90
2019-02-11T20:05:18.920Z,0.70
2019-02-11T20:07:47.783Z,0.63
2019-02-11T20:10:17.235Z,0.87
2019-02-11T20:12:48.759Z,0.80
2019-02-11T20:15:19.428Z,0.70
2019-02-11T20:17:48.266Z,1.07
2019-02-11T20:20:18.887Z,0.70
2019-02-11T20:22:48.293Z,0.80
2019-02-11T20:25:17.229Z,0.80
2019-02-11T20:27:46.655Z,1.00
2019-02-11T20:30:17.292Z,1.37
2019-02-11T20:32:46.625Z,1.20
2019-02-11T20:35:15.407Z,1.33
2019-02-11T20:37:50.352Z,0.63
2019-02-11T20:40:20.948Z,0.93
2019-02-11T20:42:49.706Z,1.00
2019-02-11T20:45:23.796Z,1.10
2019-02-11T20:47:53.204Z,1.23
2019-02-11T20:50:28.100Z,0.90
2019-02-11T20:52:59.578Z,0.90
2019-02-11T20:55:29.799Z,1.30
2019-02-11T20:57:58.897Z,1.20
2019-02-11T21:00:30.016Z,1.67
2019-02-11T21:02:58.746Z,1.90
2019-02-11T21:05:30.874Z,1.07
2019-02-11T21:07:59.630Z,1.20
2019-02-11T21:10:28.296Z,1.37
2019-02-11T21:12:56.941Z,1.60
2019-02-11T21:15:25.854Z,1.50
2019-02-11T21:17:54.733Z,1.40
2019-02-11T21:20:26.801Z,1.40
2019-02-11T21:22:58.513Z,2.03
2019-02-11T21:25:27.205Z,1.37
2019-02-11T21:27:56.195Z,1.33
2019-02-11T21:30:27.691Z,1.50
2019-02-11T21:32:56.621Z,1.27
2019-02-11T21:35:25.846Z,1.43
2019-02-11T21:37:54.628Z,2.00
2019-02-11T21:40:23.685Z,1.20
2019-02-11T21:42:52.695Z,1.27
2019-02-11T21:45:21.364Z,1.07
2019-02-11T21:47:50.406Z,2.20
2019-02-11T21:50:26.373Z,1.67
2019-02-11T21:52:52.381Z,0.97
2019-02-11T21:56:58.482Z,1.97
2019-02-11T21:59:27.160Z,1.50
2019-02-11T22:01:56.018Z,0.97
2019-02-11T22:04:25.055Z,1.97
2019-02-11T22:06:54.415Z,1.97
2019-02-11T22:09:25.352Z,1.23
2019-02-11T22:11:53.446Z,1.57
2019-02-11T22:14:22.460Z,1.13
2019-02-11T22:16:51.287Z,1.30
2019-02-11T22:19:20.105Z,1.23
2019-02-11T22:21:49.240Z,1.30
2019-02-11T22:24:18.243Z,1.50
2019-02-11T22:26:47.612Z,1.33
2019-02-11T22:29:16.433Z,0.97
2019-02-11T22:31:45.101Z,1.30
2019-02-11T22:34:16.642Z,1.43
2019-02-11T22:36:45.301Z,1.30
2019-02-11T22:39:14.447Z,1.00
2019-02-11T22:41:43.228Z,1.67
2019-02-11T22:44:13.863Z,1.80
2019-02-11T22:46:42.559Z,1.70
2019-02-11T22:49:11.543Z,1.23
2019-02-11T22:51:40.415Z,1.23
2019-02-11T22:54:09.589Z,1.10
2019-02-11T22:56:39.102Z,1.37
2019-02-11T22:59:08.055Z,1.20
2019-02-11T23:01:37.020Z,1.33
2019-02-11T23:04:05.664Z,2.07
2019-02-11T23:06:34.297Z,2.40
2019-02-11T23:09:05.030Z,1.50
2019-02-11T23:11:33.728Z,0.77
2019-02-11T23:14:02.423Z,0.93
2019-02-11T23:16:31.105Z,1.80
2019-02-11T23:18:59.772Z,1.00
2019-02-11T23:21:28.444Z,1.67
2019-02-11T23:23:57.358Z,0.90
2019-02-11T23:26:26.035Z,1.30
2019-02-11T23:28:54.683Z,1.33
2019-02-11T23:31:23.374Z,1.00
2019-02-11T23:33:52.017Z,1.33
2019-02-11T23:36:21.093Z,1.00
2019-02-11T23:38:50.048Z,1.23
2019-02-11T23:41:18.695Z,2.20
2019-02-11T23:43:47.711Z,1.00
2019-02-11T23:46:16.369Z,1.40
2019-02-11T23:48:45.455Z,1.03
2019-02-11T23:51:14.465Z,1.17
2019-02-11T23:53:43.117Z,0.80
2019-02-11T23:56:12.052Z,1.03
2019-02-11T23:58:40.735Z,1.50
